Time;durP1;ratioP1;P1;durP2;ratioP2;P2;SDS_P1;SDS_P2;PMS_P1;PMS_P2;Temp;Humidity;BMP_temperature;BMP_pressure;BME280_temperature;BME280_humidity;BME280_pressure;Samples;Min_cycle;Max_cycle;Signal;HPM_P1;HPM_P2
2022/09/22 00:01:04;;;;;;;7.43;1.50;;;;;;;;;;4982928;28;20049;-69
2022/09/22 00:03:32;;;;;;;6.43;1.60;;;;;;;;;;4981679;28;20476;-69
2022/09/22 00:06:06;;;;;;;4.00;1.38;;;;;;;;;;4982857;28;20066;-69
2022/09/22 00:08:35;;;;;;;3.55;1.45;;;;;;;;;;4981921;28;20058;-68
2022/09/22 00:11:07;;;;;;;2.80;1.40;;;;;;;;;;4983149;28;20046;-68
2022/09/22 00:13:34;;;;;;;2.53;1.10;;;;;;;;;;4982909;28;20124;-69
2022/09/22 00:16:01;;;;;;;2.35;1.25;;;;;;;;;;4983546;28;20389;-69
2022/09/22 00:18:27;;;;;;;2.25;1.33;;;;;;;;;;4981884;28;20054;-69
2022/09/22 00:20:53;;;;;;;2.28;0.98;;;;;;;;;;4980925;28;20057;-69
2022/09/22 00:23:19;;;;;;;1.63;1.08;;;;;;;;;;4981464;28;20058;-69
2022/09/22 00:25:44;;;;;;;1.13;1.02;;;;;;;;;;4981293;28;20041;-67
2022/09/22 00:28:11;;;;;;;3.35;1.20;;;;;;;;;;4982510;28;20033;-69
2022/09/22 00:30:41;;;;;;;1.67;1.23;;;;;;;;;;4983131;28;20060;-69
2022/09/22 00:33:08;;;;;;;2.55;1.02;;;;;;;;;;4984698;28;20053;-69
2022/09/22 00:35:36;;;;;;;1.73;0.93;;;;;;;;;;4980540;28;20112;-69
2022/09/22 00:38:05;;;;;;;3.35;1.10;;;;;;;;;;4987516;28;20559;-69
2022/09/22 00:40:34;;;;;;;1.85;1.15;;;;;;;;;;4983174;28;20030;-69
2022/09/22 00:43:18;;;;;;;1.35;0.90;;;;;;;;;;4979747;28;20494;-69
2022/09/22 00:45:49;;;;;;;1.90;0.98;;;;;;;;;;4977566;28;20042;-69
2022/09/22 00:48:17;;;;;;;3.78;1.10;;;;;;;;;;4981565;28;20409;-69
2022/09/22 00:50:43;;;;;;;1.63;1.08;;;;;;;;;;4976806;28;20065;-69
2022/09/22 00:53:12;;;;;;;2.47;1.10;;;;;;;;;;4980154;28;20050;-69
2022/09/22 00:55:50;;;;;;;2.53;1.00;;;;;;;;;;4975176;28;20045;-69
2022/09/22 00:58:20;;;;;;;2.65;1.13;;;;;;;;;;4983090;28;20034;-67
2022/09/22 01:00:45;;;;;;;2.70;1.00;;;;;;;;;;4974600;28;20058;-59
2022/09/22 01:03:15;;;;;;;1.33;0.82;;;;;;;;;;4978704;28;20042;-61
2022/09/22 01:05:43;;;;;;;1.83;1.00;;;;;;;;;;4975544;28;20045;-61
2022/09/22 01:08:10;;;;;;;2.00;0.90;;;;;;;;;;4991200;28;20046;-59
2022/09/22 01:10:36;;;;;;;1.60;1.05;;;;;;;;;;4977817;28;20049;-69
2022/09/22 01:13:34;;;;;;;1.83;1.27;;;;;;;;;;4979765;28;20359;-69
2022/09/22 01:15:59;;;;;;;1.55;1.27;;;;;;;;;;4980247;28;20379;-69
2022/09/22 01:18:42;;;;;;;4.75;1.40;;;;;;;;;;4980193;28;20049;-68
2022/09/22 01:21:35;;;;;;;2.17;1.20;;;;;;;;;;4975968;28;20166;-69
2022/09/22 01:24:28;;;;;;;2.50;1.25;;;;;;;;;;4970482;28;20129;-68
2022/09/22 01:27:24;;;;;;;2.47;1.20;;;;;;;;;;4972806;28;21550;-68
2022/09/22 01:29:52;;;;;;;2.28;1.13;;;;;;;;;;4978725;28;20042;-68
2022/09/22 01:32:27;;;;;;;4.80;1.38;;;;;;;;;;4977065;28;20050;-68
2022/09/22 01:35:23;;;;;;;3.17;1.35;;;;;;;;;;4978358;28;20038;-68
2022/09/22 01:38:14;;;;;;;3.15;1.38;;;;;;;;;;4976316;28;20390;-68
2022/09/22 01:40:48;;;;;;;2.38;1.10;;;;;;;;;;4977043;28;20026;-68
2022/09/22 01:43:28;;;;;;;1.27;1.00;;;;;;;;;;4984255;28;20034;-68
2022/09/22 01:45:54;;;;;;;4.18;1.20;;;;;;;;;;4982686;28;20042;-68
2022/09/22 01:48:26;;;;;;;1.48;1.05;;;;;;;;;;4982290;28;20050;-67
2022/09/22 01:50:58;;;;;;;2.13;1.10;;;;;;;;;;4981939;28;20454;-68
2022/09/22 01:53:30;;;;;;;4.13;1.10;;;;;;;;;;4983498;28;20526;-68
2022/09/22 01:56:02;;;;;;;1.50;1.08;;;;;;;;;;4982826;28;20109;-68
2022/09/22 01:58:33;;;;;;;1.15;1.00;;;;;;;;;;4977830;28;20034;-68
2022/09/22 02:01:05;;;;;;;2.00;1.25;;;;;;;;;;4976539;28;20509;-68
2022/09/22 02:03:46;;;;;;;1.58;1.15;;;;;;;;;;4982512;28;20049;-67
2022/09/22 02:06:19;;;;;;;1.90;1.00;;;;;;;;;;4982093;28;20052;-68
2022/09/22 02:08:58;;;;;;;2.10;1.42;;;;;;;;;;4982659;28;20174;-69
2022/09/22 02:11:24;;;;;;;2.22;1.10;;;;;;;;;;4980965;28;20125;-69
2022/09/22 02:13:50;;;;;;;3.88;1.23;;;;;;;;;;4980813;28;20129;-69
2022/09/22 02:16:18;;;;;;;2.15;1.10;;;;;;;;;;4983368;28;20026;-69
2022/09/22 02:18:50;;;;;;;3.28;1.20;;;;;;;;;;4977108;28;20777;-69
2022/09/22 02:21:16;;;;;;;2.35;1.33;;;;;;;;;;4985674;28;20132;-69
2022/09/22 02:23:44;;;;;;;1.50;1.20;;;;;;;;;;4982342;28;20140;-70
2022/09/22 02:26:11;;;;;;;1.52;1.13;;;;;;;;;;4984225;28;20069;-69
2022/09/22 02:28:40;;;;;;;1.40;1.20;;;;;;;;;;4980339;28;20099;-67
2022/09/22 02:31:08;;;;;;;2.90;1.38;;;;;;;;;;4981960;28;20828;-70
2022/09/22 02:33:37;;;;;;;2.67;1.38;;;;;;;;;;4982506;28;20046;-68
2022/09/22 02:36:16;;;;;;;1.83;1.13;;;;;;;;;;4980565;28;20050;-69
2022/09/22 02:39:03;;;;;;;1.63;1.30;;;;;;;;;;4981754;28;20046;-69
2022/09/22 02:41:39;;;;;;;1.40;1.27;;;;;;;;;;4982366;28;20133;-69
2022/09/22 02:44:16;;;;;;;3.80;1.45;;;;;;;;;;4980133;28;20505;-69
2022/09/22 02:46:51;;;;;;;2.00;1.20;;;;;;;;;;4977540;28;20120;-69
2022/09/22 02:49:17;;;;;;;2.80;1.27;;;;;;;;;;4978388;28;20434;-69
2022/09/22 02:51:46;;;;;;;3.85;1.30;;;;;;;;;;4980380;28;20041;-69
2022/09/22 02:54:13;;;;;;;4.43;1.40;;;;;;;;;;4982177;28;20050;-68
2022/09/22 02:56:40;;;;;;;2.25;1.38;;;;;;;;;;4978614;28;20053;-69
2022/09/22 02:59:08;;;;;;;3.38;1.00;;;;;;;;;;4981194;28;20054;-68
2022/09/22 03:01:33;;;;;;;3.33;1.35;;;;;;;;;;4976899;28;20671;-68
2022/09/22 03:03:59;;;;;;;5.88;1.45;;;;;;;;;;4977851;28;20048;-69
2022/09/22 03:06:24;;;;;;;2.08;1.45;;;;;;;;;;4982797;28;20062;-67
2022/09/22 03:08:50;;;;;;;1.40;1.08;;;;;;;;;;4978826;28;20117;-69
2022/09/22 03:11:15;;;;;;;1.92;1.13;;;;;;;;;;4977361;28;20129;-70
2022/09/22 03:13:40;;;;;;;1.58;1.25;;;;;;;;;;4979979;28;20049;-70
2022/09/22 03:16:06;;;;;;;2.05;1.30;;;;;;;;;;4980824;28;20615;-69
2022/09/22 03:18:31;;;;;;;4.03;1.50;;;;;;;;;;4982911;28;20117;-69
2022/09/22 03:20:57;;;;;;;1.63;1.30;;;;;;;;;;4975031;28;20043;-68
2022/09/22 03:23:22;;;;;;;1.92;1.20;;;;;;;;;;4983536;28;20142;-69
2022/09/22 03:25:47;;;;;;;2.15;1.40;;;;;;;;;;4980435;28;20484;-69
2022/09/22 03:28:13;;;;;;;4.75;1.40;;;;;;;;;;4984070;28;20099;-70
2022/09/22 03:30:39;;;;;;;1.58;1.30;;;;;;;;;;4975834;28;20520;-68
2022/09/22 03:33:04;;;;;;;3.85;1.70;;;;;;;;;;4983025;28;20104;-69
2022/09/22 03:35:30;;;;;;;4.47;1.25;;;;;;;;;;4975891;28;20054;-70
2022/09/22 03:37:55;;;;;;;2.38;1.27;;;;;;;;;;4979751;28;20096;-69
2022/09/22 03:40:21;;;;;;;2.78;1.33;;;;;;;;;;4979005;28;20381;-69
2022/09/22 03:42:47;;;;;;;5.45;1.50;;;;;;;;;;4976092;28;20047;-69
2022/09/22 03:45:13;;;;;;;2.33;1.27;;;;;;;;;;4980981;28;20035;-69
2022/09/22 03:47:39;;;;;;;3.28;1.42;;;;;;;;;;4975407;28;20054;-69
2022/09/22 03:50:05;;;;;;;2.13;1.02;;;;;;;;;;4979234;28;20051;-68
2022/09/22 03:52:32;;;;;;;2.92;1.30;;;;;;;;;;4982370;28;20034;-68
2022/09/22 03:54:57;;;;;;;1.73;1.30;;;;;;;;;;4978399;28;20038;-69
2022/09/22 03:57:23;;;;;;;2.50;1.30;;;;;;;;;;4977802;28;20065;-68
2022/09/22 03:59:49;;;;;;;2.90;1.50;;;;;;;;;;4977045;28;20566;-69
2022/09/22 04:02:14;;;;;;;3.33;1.33;;;;;;;;;;4980119;28;20597;-68
2022/09/22 04:04:40;;;;;;;1.63;1.25;;;;;;;;;;4979443;28;20030;-68
2022/09/22 04:07:06;;;;;;;3.40;1.30;;;;;;;;;;4981748;28;20050;-70
2022/09/22 04:09:31;;;;;;;2.35;1.50;;;;;;;;;;4992833;28;20109;-69
2022/09/22 04:11:57;;;;;;;1.42;1.10;;;;;;;;;;4981031;28;20046;-68
2022/09/22 04:14:22;;;;;;;2.25;1.15;;;;;;;;;;4979593;28;20044;-68
2022/09/22 04:16:47;;;;;;;2.35;1.33;;;;;;;;;;4977090;28;20046;-68
2022/09/22 04:19:14;;;;;;;1.98;1.38;;;;;;;;;;4981396;28;20485;-67
2022/09/22 04:21:39;;;;;;;2.05;1.35;;;;;;;;;;4979129;28;20038;-67
2022/09/22 04:24:07;;;;;;;2.67;1.40;;;;;;;;;;4979610;28;20065;-67
2022/09/22 04:26:32;;;;;;;3.85;1.40;;;;;;;;;;4982672;28;20038;-68
2022/09/22 04:28:57;;;;;;;3.70;2.05;;;;;;;;;;4977496;28;20053;-68
2022/09/22 04:31:23;;;;;;;4.43;1.65;;;;;;;;;;4978182;28;20045;-67
2022/09/22 04:33:48;;;;;;;6.03;2.42;;;;;;;;;;4979081;28;20045;-68
2022/09/22 04:36:14;;;;;;;5.60;2.50;;;;;;;;;;4981080;28;20057;-68
2022/09/22 04:38:39;;;;;;;5.55;2.53;;;;;;;;;;4977871;28;20536;-68
2022/09/22 04:41:04;;;;;;;4.38;2.63;;;;;;;;;;4977026;28;20525;-67
2022/09/22 04:43:30;;;;;;;5.82;2.42;;;;;;;;;;4976374;28;20046;-67
2022/09/22 04:45:55;;;;;;;4.05;2.33;;;;;;;;;;4976467;28;20114;-68
2022/09/22 04:48:21;;;;;;;3.28;2.05;;;;;;;;;;4978719;28;20049;-68
2022/09/22 04:50:46;;;;;;;4.38;1.80;;;;;;;;;;4971488;28;20103;-68
2022/09/22 04:53:12;;;;;;;4.40;2.20;;;;;;;;;;4972586;28;20047;-67
2022/09/22 04:55:38;;;;;;;2.70;1.70;;;;;;;;;;4977830;28;20038;-68
2022/09/22 04:58:04;;;;;;;3.88;1.77;;;;;;;;;;4975816;28;20548;-68
2022/09/22 05:00:29;;;;;;;3.58;1.60;;;;;;;;;;4973613;28;20133;-68
2022/09/22 05:02:55;;;;;;;3.45;1.70;;;;;;;;;;4972247;28;20401;-68
2022/09/22 05:05:24;;;;;;;6.68;1.92;;;;;;;;;;4978852;28;20464;-67
2022/09/22 05:07:52;;;;;;;3.13;1.58;;;;;;;;;;4977616;28;20050;-68
2022/09/22 05:10:19;;;;;;;3.28;1.80;;;;;;;;;;4976754;28;20053;-68
2022/09/22 05:12:45;;;;;;;3.78;1.70;;;;;;;;;;4973281;28;20057;-62
2022/09/22 05:15:12;;;;;;;1.83;1.65;;;;;;;;;;4969508;28;20383;-62
2022/09/22 05:17:47;;;;;;;2.95;1.83;;;;;;;;;;4977556;28;20593;-63
2022/09/22 05:20:13;;;;;;;2.67;1.83;;;;;;;;;;4978670;28;20066;-62
2022/09/22 05:22:40;;;;;;;3.25;1.90;;;;;;;;;;4977103;28;20027;-63
2022/09/22 05:25:08;;;;;;;4.15;1.80;;;;;;;;;;4978355;28;20035;-62
2022/09/22 05:27:33;;;;;;;3.05;1.92;;;;;;;;;;4976239;28;20049;-63
2022/09/22 05:29:58;;;;;;;2.22;1.55;;;;;;;;;;4981485;28;20405;-63
2022/09/22 05:32:24;;;;;;;3.13;2.13;;;;;;;;;;4972496;28;20046;-65
2022/09/22 05:34:49;;;;;;;6.45;1.92;;;;;;;;;;4968186;28;20126;-64
2022/09/22 05:37:14;;;;;;;3.00;1.90;;;;;;;;;;4978235;28;22047;-64
2022/09/22 05:39:40;;;;;;;3.53;1.80;;;;;;;;;;4979206;28;20053;-63
2022/09/22 05:42:05;;;;;;;10.15;1.95;;;;;;;;;;4979719;28;20061;-64
2022/09/22 05:44:31;;;;;;;2.50;1.60;;;;;;;;;;4964010;28;20050;-63
2022/09/22 05:46:56;;;;;;;4.80;1.70;;;;;;;;;;4944895;28;20055;-64
2022/09/22 05:49:21;;;;;;;3.08;1.70;;;;;;;;;;4963473;28;20035;-65
2022/09/22 05:51:47;;;;;;;6.90;2.10;;;;;;;;;;4974153;28;20097;-63
2022/09/22 05:54:12;;;;;;;4.30;2.10;;;;;;;;;;4976560;28;20043;-64
2022/09/22 05:56:38;;;;;;;4.70;2.10;;;;;;;;;;4975623;28;20060;-64
2022/09/22 05:59:03;;;;;;;5.18;2.00;;;;;;;;;;4977929;28;20117;-64
2022/09/22 06:01:29;;;;;;;6.22;2.40;;;;;;;;;;4976678;28;20045;-63
2022/09/22 06:03:55;;;;;;;5.18;2.42;;;;;;;;;;4978039;28;20133;-64
2022/09/22 06:06:20;;;;;;;4.40;1.92;;;;;;;;;;4978612;28;20065;-64
2022/09/22 06:08:45;;;;;;;6.47;2.40;;;;;;;;;;4979361;28;20057;-63
2022/09/22 06:11:11;;;;;;;9.23;2.47;;;;;;;;;;4980399;28;20051;-65
2022/09/22 06:13:37;;;;;;;5.53;2.50;;;;;;;;;;4982345;28;20045;-64
2022/09/22 06:16:03;;;;;;;5.75;3.05;;;;;;;;;;4978044;28;20094;-63
2022/09/22 06:18:30;;;;;;;4.60;2.45;;;;;;;;;;4974277;28;20557;-65
2022/09/22 06:20:56;;;;;;;8.63;3.88;;;;;;;;;;4973336;28;20038;-64
2022/09/22 06:23:22;;;;;;;8.18;3.35;;;;;;;;;;4982588;28;20132;-65
2022/09/22 06:25:48;;;;;;;9.82;3.28;;;;;;;;;;4980669;28;20033;-66
2022/09/22 06:28:14;;;;;;;7.65;2.70;;;;;;;;;;4977402;28;20474;-65
2022/09/22 06:30:40;;;;;;;5.80;2.80;;;;;;;;;;4977455;28;20049;-66
2022/09/22 06:33:07;;;;;;;5.90;2.50;;;;;;;;;;4978032;28;20047;-66
2022/09/22 06:35:38;;;;;;;7.18;2.53;;;;;;;;;;4979819;28;20054;-67
2022/09/22 06:38:05;;;;;;;4.10;3.03;;;;;;;;;;4979982;28;20496;-65
2022/09/22 06:40:31;;;;;;;5.88;3.05;;;;;;;;;;4978440;28;20066;-65
2022/09/22 06:43:10;;;;;;;7.13;3.70;;;;;;;;;;4977212;28;20478;-66
2022/09/22 06:45:38;;;;;;;6.43;4.00;;;;;;;;;;4977637;28;20061;-65
2022/09/22 06:48:04;;;;;;;8.57;4.20;;;;;;;;;;4975682;28;20049;-66
2022/09/22 06:50:31;;;;;;;7.40;4.18;;;;;;;;;;4980964;28;20658;-65
2022/09/22 06:53:06;;;;;;;7.15;3.70;;;;;;;;;;4995242;28;20058;-65
2022/09/22 06:55:33;;;;;;;7.22;4.22;;;;;;;;;;4972517;28;20030;-64
2022/09/22 06:57:59;;;;;;;7.22;3.63;;;;;;;;;;4979351;28;20034;-65
2022/09/22 07:00:31;;;;;;;8.48;4.40;;;;;;;;;;4975637;28;20043;-65
2022/09/22 07:03:21;;;;;;;8.55;3.55;;;;;;;;;;4978976;28;20050;-64
2022/09/22 07:05:59;;;;;;;9.05;3.05;;;;;;;;;;4976133;28;20077;-64
2022/09/22 07:08:26;;;;;;;6.25;2.60;;;;;;;;;;4983799;28;20055;-63
2022/09/22 07:10:54;;;;;;;7.70;2.67;;;;;;;;;;4978435;28;20053;-63
2022/09/22 07:13:20;;;;;;;6.40;2.40;;;;;;;;;;4987307;28;20176;-63
2022/09/22 07:15:45;;;;;;;5.93;2.00;;;;;;;;;;4975512;28;20049;-64
2022/09/22 07:18:11;;;;;;;5.70;2.20;;;;;;;;;;4966212;28;20047;-63
2022/09/22 07:20:36;;;;;;;4.15;2.08;;;;;;;;;;4959275;28;20047;-63
2022/09/22 07:23:02;;;;;;;7.20;2.10;;;;;;;;;;4964527;28;20114;-63
2022/09/22 07:25:27;;;;;;;4.82;2.10;;;;;;;;;;4963348;28;20023;-63
2022/09/22 07:27:56;;;;;;;3.25;1.70;;;;;;;;;;4961798;28;20042;-63
2022/09/22 07:30:23;;;;;;;5.28;2.20;;;;;;;;;;4959102;28;20090;-63
2022/09/22 07:32:48;;;;;;;2.97;2.05;;;;;;;;;;4959626;28;20051;-63
2022/09/22 07:35:14;;;;;;;4.90;1.95;;;;;;;;;;4957410;28;20042;-63
2022/09/22 07:37:40;;;;;;;6.03;2.20;;;;;;;;;;4957887;28;20030;-63
2022/09/22 07:40:06;;;;;;;4.18;2.22;;;;;;;;;;4959145;28;20296;-63
2022/09/22 07:42:32;;;;;;;3.25;2.25;;;;;;;;;;4959585;28;20047;-64
2022/09/22 07:45:13;;;;;;;4.15;2.08;;;;;;;;;;4960568;28;20388;-64
2022/09/22 07:50:22;;;;;;;4.43;1.73;;;;;;;;;;4956515;28;20061;-64
2022/09/22 07:52:52;;;;;;;3.92;2.28;;;;;;;;;;4957308;28;20413;-64
2022/09/22 07:55:18;;;;;;;6.63;2.30;;;;;;;;;;4960953;28;20595;-65
2022/09/22 07:57:45;;;;;;;10.00;2.55;;;;;;;;;;4959854;28;20105;-65
2022/09/22 08:00:11;;;;;;;8.38;2.80;;;;;;;;;;4963220;28;20066;-64
2022/09/22 08:02:39;;;;;;;10.90;3.10;;;;;;;;;;4960570;28;20081;-63
2022/09/22 08:05:05;;;;;;;9.05;3.20;;;;;;;;;;4961519;28;20074;-65
2022/09/22 08:07:35;;;;;;;9.10;3.25;;;;;;;;;;4959673;28;20651;-63
2022/09/22 08:10:00;;;;;;;13.50;3.25;;;;;;;;;;4961978;28;20026;-64
2022/09/22 08:12:26;;;;;;;8.93;2.70;;;;;;;;;;4962882;28;20055;-64
2022/09/22 08:14:52;;;;;;;7.70;2.90;;;;;;;;;;4962158;28;20042;-64
2022/09/22 08:17:18;;;;;;;7.60;2.50;;;;;;;;;;4959999;28;20038;-64
2022/09/22 08:19:43;;;;;;;13.70;3.13;;;;;;;;;;4960261;28;20030;-63
2022/09/22 08:22:09;;;;;;;12.85;3.08;;;;;;;;;;4960952;28;20172;-64
2022/09/22 08:24:35;;;;;;;8.90;2.80;;;;;;;;;;4960977;28;22021;-63
2022/09/22 08:27:00;;;;;;;10.13;2.97;;;;;;;;;;4971331;28;20042;-64
2022/09/22 08:29:26;;;;;;;8.70;2.85;;;;;;;;;;4977051;28;20050;-64
2022/09/22 08:31:52;;;;;;;9.50;2.60;;;;;;;;;;4978381;28;20402;-64
2022/09/22 08:34:18;;;;;;;6.43;2.28;;;;;;;;;;4980267;28;20030;-64
2022/09/22 08:36:47;;;;;;;10.68;2.55;;;;;;;;;;4980477;28;20201;-64
2022/09/22 08:39:14;;;;;;;6.10;2.10;;;;;;;;;;4975930;28;20058;-66
2022/09/22 08:41:45;;;;;;;10.25;2.42;;;;;;;;;;4977592;28;20046;-63
2022/09/22 08:44:24;;;;;;;6.15;2.10;;;;;;;;;;4979173;28;20055;-63
2022/09/22 08:46:53;;;;;;;5.20;1.83;;;;;;;;;;4976022;28;20050;-63
2022/09/22 08:52:52;;;;;;;10.43;1.65;;;;;;;;;;4975807;28;20112;-62
2022/09/22 08:55:23;;;;;;;5.53;1.40;;;;;;;;;;4981707;28;20097;-62
2022/09/22 08:58:07;;;;;;;3.63;1.13;;;;;;;;;;4975829;28;20165;-63
2022/09/22 09:00:39;;;;;;;3.17;1.23;;;;;;;;;;4974341;28;20046;-63
2022/09/22 09:03:23;;;;;;;1.65;0.90;;;;;;;;;;4977233;28;20103;-64
2022/09/22 09:06:17;;;;;;;3.58;1.02;;;;;;;;;;4969998;28;20038;-64
2022/09/22 09:09:02;;;;;;;3.85;1.30;;;;;;;;;;4973136;28;20238;-65
2022/09/22 09:12:18;;;;;;;2.97;1.30;;;;;;;;;;4975240;28;20069;-64
2022/09/22 09:14:52;;;;;;;3.80;1.30;;;;;;;;;;4976467;28;20043;-64
2022/09/22 09:17:39;;;;;;;2.10;1.20;;;;;;;;;;4977909;28;20053;-64
2022/09/22 09:20:17;;;;;;;4.15;1.55;;;;;;;;;;4979728;28;20446;-64
2022/09/22 09:22:49;;;;;;;5.72;1.60;;;;;;;;;;4976788;28;20043;-64
2022/09/22 09:25:41;;;;;;;6.10;1.42;;;;;;;;;;4980172;28;20113;-63
2022/09/22 09:28:19;;;;;;;5.72;1.30;;;;;;;;;;4983008;28;20601;-63
2022/09/22 09:30:51;;;;;;;4.15;1.25;;;;;;;;;;4983358;28;22214;-63
2022/09/22 09:33:27;;;;;;;4.20;1.60;;;;;;;;;;4975523;28;20046;-63
2022/09/22 09:35:53;;;;;;;10.30;1.40;;;;;;;;;;4978451;28;20050;-65
2022/09/22 09:38:50;;;;;;;12.10;1.85;;;;;;;;;;4977646;28;20049;-65
2022/09/22 09:41:20;;;;;;;3.72;1.48;;;;;;;;;;4977554;28;20066;-64
2022/09/22 09:43:46;;;;;;;10.02;1.52;;;;;;;;;;4980992;28;20176;-64
2022/09/22 09:46:25;;;;;;;4.13;1.80;;;;;;;;;;4985209;28;20143;-65
2022/09/22 09:49:08;;;;;;;7.40;1.50;;;;;;;;;;4979008;28;20047;-63
2022/09/22 09:51:37;;;;;;;6.95;1.30;;;;;;;;;;4977664;28;20461;-63
2022/09/22 09:54:06;;;;;;;5.13;1.38;;;;;;;;;;4980110;28;20050;-63
2022/09/22 09:56:35;;;;;;;2.33;1.08;;;;;;;;;;4979309;28;20142;-63
2022/09/22 10:01:50;;;;;;;4.20;1.35;;;;;;;;;;4981112;28;20058;-63
2022/09/22 10:04:36;;;;;;;4.18;1.30;;;;;;;;;;4983380;28;20430;-63
2022/09/22 10:07:15;;;;;;;5.38;1.30;;;;;;;;;;4985473;28;20625;-63
2022/09/22 10:09:41;;;;;;;3.67;1.25;;;;;;;;;;4979889;28;20046;-63
2022/09/22 10:12:21;;;;;;;3.13;0.95;;;;;;;;;;4985104;28;20074;-63
2022/09/22 10:14:52;;;;;;;5.95;1.23;;;;;;;;;;4976107;28;20054;-64
2022/09/22 10:17:25;;;;;;;4.45;1.00;;;;;;;;;;4976725;28;20091;-63
2022/09/22 10:19:51;;;;;;;2.40;1.17;;;;;;;;;;4978387;28;20073;-64
2022/09/22 10:22:23;;;;;;;2.03;1.20;;;;;;;;;;4977523;28;20030;-64
2022/09/22 10:24:58;;;;;;;6.88;1.58;;;;;;;;;;4970485;28;20054;-64
2022/09/22 10:27:26;;;;;;;1.80;1.00;;;;;;;;;;4976495;28;20051;-65
2022/09/22 10:30:12;;;;;;;2.55;1.10;;;;;;;;;;4977683;28;20108;-65
2022/09/22 10:32:39;;;;;;;2.15;1.00;;;;;;;;;;4976500;28;20081;-65
2022/09/22 10:35:27;;;;;;;3.65;0.90;;;;;;;;;;4985934;28;20042;-63
2022/09/22 10:37:56;;;;;;;1.52;0.90;;;;;;;;;;4992102;28;20741;-63
2022/09/22 10:40:22;;;;;;;2.85;0.95;;;;;;;;;;4982624;28;20485;-63
2022/09/22 10:42:51;;;;;;;5.88;1.17;;;;;;;;;;4980543;28;20047;-65
2022/09/22 10:45:18;;;;;;;2.53;1.00;;;;;;;;;;4983646;28;20413;-65
2022/09/22 10:47:57;;;;;;;2.75;1.00;;;;;;;;;;4982873;28;20436;-64
2022/09/22 10:50:50;;;;;;;2.22;0.93;;;;;;;;;;4981656;28;20069;-65
2022/09/22 10:53:31;;;;;;;2.17;0.68;;;;;;;;;;4981122;28;20069;-64
2022/09/22 10:56:13;;;;;;;7.45;0.90;;;;;;;;;;4980885;28;20108;-64
2022/09/22 10:58:51;;;;;;;1.35;0.80;;;;;;;;;;4982105;28;20058;-65
2022/09/22 11:01:42;;;;;;;1.17;0.60;;;;;;;;;;4977198;28;20740;-65
2022/09/22 11:04:31;;;;;;;1.27;0.70;;;;;;;;;;4979668;28;20473;-63
2022/09/22 11:13:33;;;;;;;3.70;0.80;;;;;;;;;;4982890;28;20073;-65
2022/09/22 11:16:17;;;;;;;1.63;0.73;;;;;;;;;;4955995;28;20048;-63
2022/09/22 11:19:08;;;;;;;3.85;0.80;;;;;;;;;;4973027;28;20034;-64
2022/09/22 11:21:52;;;;;;;1.88;0.90;;;;;;;;;;4953832;28;20039;-64
2022/09/22 11:24:26;;;;;;;4.35;0.82;;;;;;;;;;4957713;28;20047;-65
2022/09/22 11:26:58;;;;;;;7.45;1.00;;;;;;;;;;4962508;28;20406;-65
2022/09/22 11:29:55;;;;;;;1.35;0.73;;;;;;;;;;4963162;28;20051;-64
2022/09/22 11:32:50;;;;;;;2.28;1.00;;;;;;;;;;4959103;28;20043;-65
2022/09/22 11:35:44;;;;;;;1.55;1.02;;;;;;;;;;4957031;28;20121;-64
2022/09/22 11:38:41;;;;;;;2.90;0.88;;;;;;;;;;4953079;28;20509;-63
2022/09/22 11:41:29;;;;;;;4.57;1.10;;;;;;;;;;4961341;28;20073;-63
2022/09/22 11:44:06;;;;;;;3.22;1.00;;;;;;;;;;4978851;28;20072;-64
2022/09/22 11:46:54;;;;;;;2.33;0.82;;;;;;;;;;4974490;28;20038;-65
2022/09/22 11:49:44;;;;;;;1.73;0.65;;;;;;;;;;4979441;28;20042;-65
2022/09/22 11:52:45;;;;;;;2.05;0.75;;;;;;;;;;4978700;28;20108;-64
2022/09/22 11:55:22;;;;;;;3.03;0.90;;;;;;;;;;4970138;28;20995;-64
2022/09/22 11:57:52;;;;;;;2.67;0.65;;;;;;;;;;4981327;28;20458;-64
2022/09/22 12:00:19;;;;;;;1.40;0.70;;;;;;;;;;4977158;28;20034;-63
2022/09/22 12:02:59;;;;;;;1.80;0.70;;;;;;;;;;4978731;28;20484;-64
2022/09/22 12:05:40;;;;;;;3.70;0.70;;;;;;;;;;4977087;28;20042;-63
2022/09/22 12:08:21;;;;;;;2.75;0.77;;;;;;;;;;4973933;28;20046;-64
2022/09/22 12:10:49;;;;;;;4.00;0.80;;;;;;;;;;4976038;28;20034;-63
2022/09/22 12:13:20;;;;;;;4.20;0.90;;;;;;;;;;4980670;28;20089;-65
2022/09/22 12:16:12;;;;;;;3.00;0.60;;;;;;;;;;4976681;28;20074;-64
2022/09/22 12:18:47;;;;;;;3.40;0.80;;;;;;;;;;4981299;28;20046;-63
2022/09/22 12:21:51;;;;;;;1.55;0.80;;;;;;;;;;4974406;28;20046;-62
2022/09/22 12:24:17;;;;;;;4.35;1.02;;;;;;;;;;4976539;28;20186;-62
2022/09/22 12:26:45;;;;;;;3.17;0.95;;;;;;;;;;4971575;28;20042;-63
2022/09/22 12:29:14;;;;;;;3.45;0.80;;;;;;;;;;4978463;28;20049;-64
2022/09/22 12:31:42;;;;;;;1.33;0.70;;;;;;;;;;4976015;28;20065;-63
2022/09/22 12:34:24;;;;;;;2.65;0.75;;;;;;;;;;4979079;28;20029;-63
2022/09/22 12:36:53;;;;;;;4.60;0.85;;;;;;;;;;4977105;28;20042;-63
2022/09/22 12:39:28;;;;;;;3.47;0.80;;;;;;;;;;4979700;28;20054;-64
2022/09/22 12:41:58;;;;;;;4.40;1.00;;;;;;;;;;4979029;28;20038;-63
2022/09/22 12:44:33;;;;;;;2.83;0.93;;;;;;;;;;4977823;28;20685;-68
2022/09/22 12:47:06;;;;;;;1.95;0.70;;;;;;;;;;4977973;28;20530;-66
2022/09/22 12:49:32;;;;;;;;;;;;;;;;;;4975686;28;20406;-61
2022/09/22 12:51:58;;;;;;;0.82;0.57;;;;;;;;;;4982746;28;19922;-63
2022/09/22 12:54:26;;;;;;;1.08;0.60;;;;;;;;;;4975708;28;20051;-63
2022/09/22 12:56:56;;;;;;;5.47;0.68;;;;;;;;;;4981094;28;20054;-63
2022/09/22 12:59:37;;;;;;;1.48;0.70;;;;;;;;;;4979932;28;20050;-64
2022/09/22 13:02:20;;;;;;;3.20;0.60;;;;;;;;;;4976826;28;20074;-64
2022/09/22 13:04:48;;;;;;;;;;;;;;;;;;4978600;28;20076;-63
2022/09/22 13:07:34;;;;;;;3.92;0.85;;;;;;;;;;4982906;28;20015;-62
2022/09/22 13:10:21;;;;;;;4.05;0.60;;;;;;;;;;4979476;28;20050;-64
2022/09/22 13:13:02;;;;;;;2.70;0.80;;;;;;;;;;4979943;28;20058;-64
2022/09/22 13:15:33;;;;;;;1.50;0.52;;;;;;;;;;4981396;28;20097;-63
2022/09/22 13:17:58;;;;;;;2.80;0.70;;;;;;;;;;4980877;28;20524;-62
2022/09/22 13:20:34;;;;;;;1.55;0.75;;;;;;;;;;4981094;28;20046;-64
2022/09/22 13:23:10;;;;;;;1.58;0.60;;;;;;;;;;4977418;28;20034;-62
2022/09/22 13:25:36;;;;;;;1.10;0.70;;;;;;;;;;4973371;28;20050;-63
2022/09/22 13:28:11;;;;;;;1.55;0.70;;;;;;;;;;4975183;28;20027;-63
2022/09/22 13:30:38;;;;;;;2.33;0.80;;;;;;;;;;4977277;28;20057;-64
2022/09/22 13:33:04;;;;;;;2.17;0.65;;;;;;;;;;4976349;28;20039;-64
2022/09/22 13:35:37;;;;;;;1.50;0.70;;;;;;;;;;4982137;28;20089;-63
2022/09/22 13:38:03;;;;;;;2.40;0.60;;;;;;;;;;4977058;28;20047;-62
2022/09/22 13:40:33;;;;;;;4.65;0.82;;;;;;;;;;4980483;28;20097;-61
2022/09/22 13:43:04;;;;;;;1.90;0.60;;;;;;;;;;4985216;28;20114;-63
2022/09/22 13:45:30;;;;;;;2.45;0.88;;;;;;;;;;4981156;28;20793;-62
2022/09/22 13:48:03;;;;;;;3.88;0.88;;;;;;;;;;4979844;28;20509;-64
2022/09/22 13:50:31;;;;;;;2.35;0.70;;;;;;;;;;4984286;28;22335;-64
2022/09/22 13:52:59;;;;;;;3.35;0.70;;;;;;;;;;4979675;28;20046;-64
2022/09/22 13:55:34;;;;;;;4.88;0.73;;;;;;;;;;4981863;28;20030;-64
2022/09/22 13:58:01;;;;;;;1.80;0.57;;;;;;;;;;4983330;28;20050;-61
2022/09/22 14:00:33;;;;;;;1.65;0.50;;;;;;;;;;4985706;28;20274;-63
2022/09/22 14:03:01;;;;;;;0.90;0.60;;;;;;;;;;4979848;28;20517;-62
2022/09/22 14:05:34;;;;;;;4.43;0.80;;;;;;;;;;4981312;28;22931;-66
2022/09/22 14:08:03;;;;;;;1.73;0.60;;;;;;;;;;4982636;28;20042;-66
2022/09/22 14:10:29;;;;;;;4.57;0.65;;;;;;;;;;4980844;28;20068;-62
2022/09/22 14:12:55;;;;;;;4.13;0.68;;;;;;;;;;4985809;28;20109;-64
2022/09/22 14:15:35;;;;;;;2.45;0.73;;;;;;;;;;4981270;28;20044;-64
2022/09/22 14:18:12;;;;;;;2.15;0.60;;;;;;;;;;4983237;28;20042;-65
2022/09/22 14:20:39;;;;;;;1.65;0.70;;;;;;;;;;4986124;28;20061;-63
2022/09/22 14:23:13;;;;;;;3.15;0.90;;;;;;;;;;4982828;28;20051;-62
2022/09/22 14:25:38;;;;;;;1.58;0.95;;;;;;;;;;4982899;28;20026;-62
2022/09/22 14:28:03;;;;;;;1.23;0.70;;;;;;;;;;4983326;28;20398;-62
2022/09/22 14:30:40;;;;;;;3.90;0.60;;;;;;;;;;4981224;28;20053;-62
2022/09/22 14:33:15;;;;;;;1.33;0.82;;;;;;;;;;4983693;28;21462;-62
2022/09/22 14:35:41;;;;;;;1.27;0.50;;;;;;;;;;4982835;28;20141;-62
2022/09/22 14:38:07;;;;;;;1.88;0.45;;;;;;;;;;4982468;28;20043;-62
2022/09/22 14:40:33;;;;;;;0.77;0.50;;;;;;;;;;4976878;28;20038;-62
2022/09/22 14:43:07;;;;;;;2.78;0.63;;;;;;;;;;4983860;28;20049;-62
2022/09/22 14:45:35;;;;;;;1.02;0.50;;;;;;;;;;4983461;28;20048;-62
2022/09/22 14:48:18;;;;;;;0.80;0.63;;;;;;;;;;4980227;28;20445;-63
2022/09/22 14:51:07;;;;;;;1.58;0.70;;;;;;;;;;4983287;28;20121;-63
2022/09/22 14:53:47;;;;;;;5.68;0.70;;;;;;;;;;4982558;28;20396;-63
2022/09/22 14:56:26;;;;;;;2.33;0.70;;;;;;;;;;4981471;28;20144;-63
2022/09/22 14:58:54;;;;;;;2.95;0.80;;;;;;;;;;4983532;28;20046;-65
2022/09/22 15:04:17;;;;;;;1.58;0.60;;;;;;;;;;4982895;28;20045;-65
2022/09/22 15:06:45;;;;;;;1.00;0.63;;;;;;;;;;4981713;28;20063;-64
2022/09/22 15:09:41;;;;;;;2.65;0.80;;;;;;;;;;4984327;28;20058;-62
2022/09/22 15:12:39;;;;;;;3.75;0.70;;;;;;;;;;4979388;28;20046;-62
2022/09/22 15:15:17;;;;;;;1.10;0.60;;;;;;;;;;4978308;28;20054;-62
2022/09/22 15:20:51;;;;;;;5.57;0.82;;;;;;;;;;4982295;28;20046;-64
2022/09/22 15:23:22;;;;;;;2.10;0.68;;;;;;;;;;4979606;28;20111;-63
2022/09/22 15:25:48;;;;;;;2.05;0.60;;;;;;;;;;4978945;28;20386;-63
2022/09/22 15:28:22;;;;;;;1.08;0.65;;;;;;;;;;4978862;28;20535;-62
2022/09/22 15:30:47;;;;;;;1.73;0.57;;;;;;;;;;4977142;28;20045;-63